Time;durP1;ratioP1;P1;durP2;ratioP2;P2;SDS_P1;SDS_P2;PMS_P1;PMS_P2;Temp;Humidity;BMP_temperature;BMP_pressure;BME280_temperature;BME280_humidity;BME280_pressure;Samples;Min_cycle;Max_cycle;Signal;HPM_P1;HPM_P2
2022/04/25 00:01:44;;;;;;;;;2.00;2.00;;;;;16.37;49.07;97458.22;6310856;27;97099;-70
2022/04/25 00:04:50;;;;;;;;;3.00;3.00;;;;;16.39;49.17;97450.56;6311748;27;96498;-69
2022/04/25 00:07:53;;;;;;;;;2.00;2.00;;;;;16.40;49.08;97457.63;6299244;27;98732;-72
2022/04/25 00:10:57;;;;;;;;;3.75;2.25;;;;;16.36;49.04;97454.69;6311657;27;96498;-70
2022/04/25 00:14:00;;;;;;;;;3.00;3.00;;;;;16.34;49.21;97447.91;6314920;27;97421;-69
2022/04/25 00:17:05;;;;;;;;;5.60;4.00;;;;;16.33;49.31;97440.84;6307937;27;99968;-69
2022/04/25 00:20:10;;;;;;;;;3.00;2.00;;;;;16.28;49.37;97446.34;6294022;27;96853;-72
2022/04/25 00:23:13;;;;;;;;;4.00;4.00;;;;;16.25;49.27;97442.31;6305963;27;97575;-70
2022/04/25 00:26:16;;;;;;;;;3.33;3.33;;;;;16.20;49.24;97436.16;6312880;27;96694;-69
2022/04/25 00:29:20;;;;;;;;;4.75;4.00;;;;;16.18;49.22;97441.06;6311786;27;96827;-73
2022/04/25 00:32:25;;;;;;;;;2.80;2.80;;;;;16.12;49.19;97440.34;6311426;27;97707;-72
2022/04/25 00:35:29;;;;;;;;;2.00;2.00;;;;;15.99;49.25;97436.41;6312701;27;97466;-72
2022/04/25 00:38:32;;;;;;;;;3.40;3.00;;;;;16.02;49.61;97437.75;6311345;27;97059;-69
2022/04/25 00:41:36;;;;;;;;;3.00;3.00;;;;;15.92;49.96;97457.72;6302674;27;97746;-70
2022/04/25 00:44:41;;;;;;;;;4.00;4.00;;;;;15.87;50.13;97456.97;6299262;27;96371;-70
2022/04/25 00:47:47;;;;;;;;;2.20;2.20;;;;;15.83;50.25;97461.38;6294023;27;97756;-69
2022/04/25 00:50:50;;;;;;;;;4.00;4.00;;;;;15.75;50.49;97462.81;6294135;27;98008;-74
2022/04/25 00:53:53;;;;;;;;;5.00;5.00;;;;;15.71;50.61;97477.25;6313662;27;96470;-70
2022/04/25 00:56:57;;;;;;;;;5.00;4.00;;;;;15.65;50.69;97462.91;6315974;27;97476;-72
2022/04/25 01:00:05;;;;;;;;;6.50;6.50;;;;;15.58;51.09;97467.91;6312828;27;97877;-70
2022/04/25 01:03:09;;;;;;;;;6.50;6.00;;;;;15.52;51.09;97460.91;6315815;27;97391;-70
2022/04/25 01:06:13;;;;;;;;;5.00;5.00;;;;;15.43;50.94;97468.03;6315981;27;97514;-72
2022/04/25 01:09:16;;;;;;;;;6.40;6.00;;;;;15.31;51.06;97462.16;6314428;27;97427;-73
2022/04/25 01:12:19;;;;;;;;;6.00;5.00;;;;;15.23;51.30;97466.31;6315026;27;96796;-70
2022/04/25 01:15:23;;;;;;;;;6.00;6.00;;;;;15.13;51.43;97467.22;6313252;27;97376;-70
2022/04/25 01:18:28;;;;;;;;;7.00;6.00;;;;;15.07;51.53;97462.94;6309236;27;96896;-71
2022/04/25 01:21:39;;;;;;;;;6.25;6.00;;;;;15.00;51.66;97461.66;6315172;27;96714;-71
2022/04/25 01:28:05;;;;;;;;;5.00;5.00;;;;;14.86;51.96;97466.91;6289789;27;97384;-71
2022/04/25 01:31:09;;;;;;;;;5.00;4.00;;;;;14.77;51.78;97463.16;6287187;27;98392;-70
2022/04/25 01:34:12;;;;;;;;;4.00;4.00;;;;;14.65;51.85;97462.72;6295429;27;99479;-73
2022/04/25 01:37:17;;;;;;;;;4.00;4.00;;;;;14.41;51.73;97432.81;6312754;27;97509;-71
2022/04/25 01:40:24;;;;;;;;;5.00;4.00;;;;;14.46;51.77;97457.16;6313844;27;97966;-72
2022/04/25 01:43:27;;;;;;;;;5.00;3.60;;;;;14.38;52.06;97463.16;6316102;27;96764;-71
2022/04/25 01:46:30;;;;;;;;;4.00;4.00;;;;;14.29;52.19;97462.94;6290048;27;99983;-71
2022/04/25 01:49:34;;;;;;;;;5.00;4.60;;;;;14.25;52.34;97461.06;6283901;27;98941;-72
2022/04/25 01:52:38;;;;;;;;;3.40;3.40;;;;;14.18;52.59;97468.66;6312733;27;96699;-70
2022/04/25 01:55:42;;;;;;;;;5.40;4.00;;;;;14.12;52.92;97470.59;6314933;27;96735;-71
2022/04/25 01:58:46;;;;;;;;;7.00;7.00;;;;;13.96;52.83;97435.75;6307500;27;98474;-70
2022/04/25 02:01:49;;;;;;;;;5.00;4.40;;;;;14.06;53.14;97460.88;6304641;27;98465;-69
2022/04/25 02:04:55;;;;;;;;;5.40;4.40;;;;;14.05;52.89;97448.41;6289008;27;96587;-68
2022/04/25 02:07:58;;;;;;;;;5.00;4.00;;;;;14.01;52.87;97455.50;6289426;27;97459;-71
2022/04/25 02:11:22;;;;;;;;;4.00;3.00;;;;;13.86;53.02;97442.81;6311929;27;97489;-69
2022/04/25 02:14:25;;;;;;;;;4.00;4.00;;;;;13.94;52.90;97465.81;6311281;27;96693;-68
2022/04/25 02:17:29;;;;;;;;;6.00;5.00;;;;;13.88;52.93;97459.59;6313920;27;97418;-70
2022/04/25 02:20:32;;;;;;;;;4.40;3.00;;;;;13.84;53.39;97466.66;6310295;27;96823;-68
2022/04/25 02:23:36;;;;;;;;;5.00;5.00;;;;;13.80;53.78;97460.19;6311897;27;98414;-69
2022/04/25 02:26:41;;;;;;;;;5.00;5.00;;;;;13.80;53.93;97471.00;6313577;27;97441;-73
2022/04/25 02:29:46;;;;;;;;;5.00;5.00;;;;;13.81;53.59;97466.41;6289484;27;97659;-70
2022/04/25 02:32:49;;;;;;;;;4.00;4.00;;;;;13.79;53.42;97477.50;6288453;27;96373;-70
2022/04/25 02:35:52;;;;;;;;;6.00;5.00;;;;;13.70;53.39;97476.47;6306883;27;97491;-72
2022/04/25 02:38:56;;;;;;;;;4.00;4.00;;;;;13.64;53.34;97474.84;6313694;27;97582;-69
2022/04/25 02:42:00;;;;;;;;;5.00;4.00;;;;;13.63;53.11;97491.41;6314487;27;96524;-68
2022/04/25 02:45:05;;;;;;;;;6.00;5.00;;;;;13.61;53.56;97490.84;6315038;27;97425;-69
2022/04/25 02:48:08;;;;;;;;;3.75;3.00;;;;;13.58;53.63;97489.50;6314993;27;96953;-72
2022/04/25 02:51:13;;;;;;;;;5.60;3.00;;;;;13.48;53.35;97473.28;6303693;27;96769;-68
2022/04/25 02:54:17;;;;;;;;;6.40;4.00;;;;;13.54;53.30;97493.00;6295105;27;99409;-71
2022/04/25 02:57:21;;;;;;;;;6.00;5.00;;;;;13.50;53.59;97492.75;6300172;27;98279;-71
2022/04/25 03:00:25;;;;;;;;;3.20;3.20;;;;;13.54;53.74;97504.66;6308878;27;97526;-69
2022/04/25 03:03:31;;;;;;;;;4.00;4.00;;;;;13.57;53.78;97504.13;6312777;27;99451;-71
2022/04/25 03:06:35;;;;;;;;;5.00;5.00;;;;;13.58;53.81;97503.06;6315263;27;97948;-69
2022/04/25 03:09:38;;;;;;;;;3.20;3.20;;;;;13.66;54.05;97507.09;6312447;27;96533;-69
2022/04/25 03:12:43;;;;;;;;;4.00;4.00;;;;;13.52;54.17;97471.66;6310816;27;99556;-71
2022/04/25 03:15:47;;;;;;;;;4.00;3.00;;;;;13.79;54.15;97510.00;6310881;27;96451;-69
2022/04/25 03:18:53;;;;;;;;;6.50;5.50;;;;;13.84;53.91;97512.72;6321249;27;97398;-71
2022/04/25 03:21:56;;;;;;;;;5.00;4.80;;;;;13.86;54.22;97515.97;6295553;27;97810;-70
2022/04/25 03:25:00;;;;;;;;;6.00;6.00;;;;;13.92;53.98;97513.25;6314043;27;96611;-70
2022/04/25 03:28:05;;;;;;;;;4.00;3.33;;;;;13.97;54.22;97514.03;6301631;27;98517;-70
2022/04/25 03:31:08;;;;;;;;;5.60;5.60;;;;;14.03;54.24;97512.91;6329681;27;96987;-73
2022/04/25 03:34:12;;;;;;;;;4.00;4.00;;;;;14.10;54.22;97508.00;6310272;27;97780;-70
2022/04/25 03:37:15;;;;;;;;;3.60;3.60;;;;;14.14;53.99;97500.13;6312276;27;99436;-70
2022/04/25 03:40:20;;;;;;;;;5.00;5.00;;;;;14.10;54.14;97496.34;6311064;27;96694;-72
2022/04/25 03:43:25;;;;;;;;;7.00;6.00;;;;;14.17;53.96;97503.09;6311376;27;97793;-72
2022/04/25 03:46:29;;;;;;;;;5.60;5.40;;;;;14.21;54.00;97495.22;6310196;27;96940;-71
2022/04/25 03:49:32;;;;;;;;;7.40;5.00;;;;;14.26;53.96;97495.22;6312501;27;98500;-71
2022/04/25 03:52:35;;;;;;;;;5.00;4.00;;;;;14.31;53.88;97501.41;6290721;27;99827;-72
2022/04/25 03:59:01;;;;;;;;;5.50;5.00;;;;;14.45;53.82;97498.94;6298104;27;97735;-69
2022/04/25 04:02:05;;;;;;;;;5.00;5.00;;;;;14.56;53.80;97511.31;6327713;27;96768;-70
2022/04/25 04:05:09;;;;;;;;;5.00;4.00;;;;;14.64;53.89;97512.63;6313958;27;98895;-70
2022/04/25 04:08:13;;;;;;;;;6.25;5.00;;;;;14.68;53.74;97509.09;6321915;27;97576;-72
2022/04/25 04:11:16;;;;;;;;;6.00;5.00;;;;;14.71;53.69;97508.50;6320679;27;96873;-72
2022/04/25 04:14:21;;;;;;;;;7.00;6.00;;;;;14.77;53.56;97511.19;6316619;27;97775;-69
2022/04/25 04:17:24;;;;;;;;;7.00;6.00;;;;;14.86;53.74;97523.06;6304136;27;99554;-68
2022/04/25 04:20:27;;;;;;;;;5.40;5.40;;;;;14.92;53.69;97528.19;6314768;27;98979;-69
2022/04/25 04:23:31;;;;;;;;;5.20;5.00;;;;;14.98;53.51;97531.66;6311945;27;98040;-69
2022/04/25 04:26:34;;;;;;;;;6.60;6.00;;;;;15.08;53.52;97528.88;6304522;27;96878;-72
2022/04/25 04:29:39;;;;;;;;;8.60;6.00;;;;;15.19;53.33;97535.84;6330589;27;98257;-68
2022/04/25 04:32:43;;;;;;;;;6.00;6.00;;;;;15.32;53.29;97548.75;6326908;27;97232;-70
2022/04/25 04:39:07;;;;;;;;;8.80;7.00;;;;;15.62;53.43;97538.75;6307065;27;97799;-72
2022/04/25 04:42:10;;;;;;;;;9.80;8.40;;;;;15.77;53.37;97547.56;6322741;27;97409;-71
2022/04/25 04:45:15;;;;;;;;;8.40;8.00;;;;;15.90;53.42;97559.66;6317340;27;96507;-69
2022/04/25 04:48:19;;;;;;;;;10.00;10.00;;;;;16.02;53.29;97554.63;6341249;27;97030;-73
2022/04/25 04:51:22;;;;;;;;;11.60;10.00;;;;;16.15;53.36;97561.28;6316832;27;97017;-73
2022/04/25 04:54:25;;;;;;;;;10.00;8.60;;;;;16.28;53.35;97552.41;6328513;27;96905;-71
2022/04/25 04:57:29;;;;;;;;;9.60;9.60;;;;;16.42;53.11;97566.91;6338952;27;96669;-69
2022/04/25 05:00:34;;;;;;;;;11.40;11.00;;;;;16.53;53.08;97565.69;6310704;27;97525;-72
2022/04/25 05:03:41;;;;;;;;;9.00;9.00;;;;;16.62;52.71;97563.97;6318731;27;100012;-73
2022/04/25 05:06:45;;;;;;;;;10.40;9.00;;;;;16.74;52.55;97560.84;6333809;27;97422;-70
2022/04/25 05:09:48;;;;;;;;;12.00;11.00;;;;;16.82;52.26;97560.97;6309390;27;97544;-73
2022/04/25 05:12:54;;;;;;;;;10.00;10.00;;;;;16.86;52.26;97553.03;6320770;27;97138;-70
2022/04/25 05:15:59;;;;;;;;;10.00;9.00;;;;;16.88;51.27;97573.41;6297233;27;98509;-69
2022/04/25 05:19:02;;;;;;;;;8.00;8.00;;;;;16.97;51.10;97572.75;6326182;27;97766;-70
2022/04/25 05:22:06;;;;;;;;;8.00;8.00;;;;;16.88;50.97;97583.50;6337071;27;97398;-71
2022/04/25 05:25:09;;;;;;;;;9.00;7.00;;;;;16.76;50.65;97585.84;6322737;27;97504;-72
2022/04/25 05:28:13;;;;;;;;;8.00;7.60;;;;;16.74;50.61;97590.75;6311729;27;97345;-70
2022/04/25 05:31:17;;;;;;;;;9.20;8.00;;;;;16.75;50.41;97590.47;6307131;27;98388;-72
2022/04/25 05:34:21;;;;;;;;;10.60;10.00;;;;;16.82;50.73;97598.25;6311233;27;97182;-72
2022/04/25 05:37:24;;;;;;;;;9.80;9.40;;;;;16.88;50.53;97599.81;6330964;27;96443;-72
2022/04/25 05:40:28;;;;;;;;;10.80;10.00;;;;;16.92;50.30;97598.13;6307635;27;97193;-71
2022/04/25 05:43:31;;;;;;;;;10.50;10.00;;;;;16.95;50.07;97599.47;6315287;27;98362;-68
2022/04/25 05:46:36;;;;;;;;;11.00;10.00;;;;;16.99;49.87;97603.22;6311049;27;100952;-72
2022/04/25 05:53:02;;;;;;;;;9.60;9.00;;;;;16.93;50.15;97580.69;6306798;27;97407;-70
2022/04/25 05:56:05;;;;;;;;;11.40;10.00;;;;;17.22;50.37;97600.41;6326389;27;97814;-72
2022/04/25 05:59:09;;;;;;;;;11.00;10.00;;;;;17.38;49.93;97605.63;6340334;27;96650;-70
2022/04/25 06:02:17;;;;;;;;;12.60;12.60;;;;;17.50;49.58;97606.78;6306486;27;96794;-72
2022/04/25 06:05:20;;;;;;;;;13.67;12.67;;;;;17.57;49.42;97611.84;6324328;27;97389;-69
2022/04/25 06:08:24;;;;;;;;;11.60;10.00;;;;;17.67;49.13;97606.28;6319258;27;97501;-70
2022/04/25 06:11:27;;;;;;;;;12.50;11.00;;;;;17.83;49.25;97609.56;6340566;27;96601;-69
2022/04/25 06:14:31;;;;;;;;;12.00;11.00;;;;;17.94;48.76;97617.22;6332773;27;97502;-73
2022/04/25 06:17:36;;;;;;;;;11.00;10.00;;;;;18.10;48.35;97609.59;6306860;27;99523;-73
2022/04/25 06:20:39;;;;;;;;;9.00;9.00;;;;;18.24;47.73;97615.88;6304474;27;96895;-70
2022/04/25 06:23:43;;;;;;;;;11.00;11.00;;;;;18.35;47.56;97616.47;6331755;27;97498;-70
2022/04/25 06:26:49;;;;;;;;;9.20;7.80;;;;;18.51;46.17;97617.81;6285991;27;96668;-73
2022/04/25 06:29:52;;;;;;;;;11.50;11.00;;;;;18.65;46.56;97610.44;6329829;27;98115;-72
2022/04/25 06:32:58;;;;;;;;;10.00;8.40;;;;;18.69;45.75;97599.72;6324470;27;96588;-72
2022/04/25 06:36:01;;;;;;;;;11.00;10.00;;;;;18.88;45.46;97606.66;6327401;27;96680;-69
2022/04/25 06:39:04;;;;;;;;;11.80;10.00;;;;;18.96;45.32;97610.63;6313726;27;96663;-73
2022/04/25 06:42:09;;;;;;;;;9.00;8.50;;;;;19.05;45.05;97619.69;6289091;27;99878;-69
2022/04/25 06:45:14;;;;;;;;;11.40;10.00;;;;;19.14;44.88;97619.78;6292195;27;98354;-70
2022/04/25 06:48:18;;;;;;;;;11.40;10.40;;;;;19.17;45.20;97624.59;6297974;27;97570;-73
2022/04/25 06:51:25;;;;;;;;;9.00;8.60;;;;;19.22;44.66;97632.69;6304513;27;96965;-69
2022/04/25 06:54:30;;;;;;;;;8.00;8.00;;;;;19.22;45.01;97627.22;6316353;27;98776;-73
2022/04/25 06:57:34;;;;;;;;;11.75;8.25;;;;;19.21;45.42;97626.41;6317860;27;97811;-69
2022/04/25 07:00:38;;;;;;;;;10.00;8.00;;;;;19.24;45.91;97636.75;6308492;27;96772;-73
2022/04/25 07:03:43;;;;;;;;;8.00;8.00;;;;;19.27;45.34;97624.38;6313536;27;96920;-72
2022/04/25 07:06:47;;;;;;;;;8.40;7.00;;;;;19.28;45.37;97617.81;6312397;27;98359;-69
2022/04/25 07:09:53;;;;;;;;;10.00;8.00;;;;;19.36;45.77;97614.31;6296600;27;97738;-73
2022/04/25 07:12:57;;;;;;;;;9.00;9.00;;;;;19.45;46.24;97612.50;6323745;27;97481;-69
2022/04/25 07:16:00;;;;;;;;;10.00;10.00;;;;;19.55;46.09;97609.53;6314512;27;98740;-68
2022/04/25 07:19:05;;;;;;;;;8.20;8.20;;;;;19.69;45.50;97602.09;6330194;27;96649;-73
2022/04/25 07:28:58;;;;;;;;;7.60;6.00;;;;;20.19;42.29;97599.94;6318338;27;97295;-70
2022/04/25 07:32:01;;;;;;;;;8.00;7.00;;;;;20.43;43.08;97610.53;6326077;27;97073;-73
2022/04/25 07:35:07;;;;;;;;;8.00;7.00;;;;;20.69;43.13;97605.13;6327155;27;96590;-75
2022/04/25 07:38:11;;;;;;;;;10.50;9.50;;;;;20.90;42.21;97611.63;6330216;27;98552;-74
2022/04/25 07:41:14;;;;;;;;;10.00;9.00;;;;;21.27;42.37;97615.75;6308546;27;98198;-70
2022/04/25 07:44:18;;;;;;;;;9.00;9.00;;;;;21.55;42.80;97617.03;6336919;27;96894;-74
2022/04/25 07:47:22;;;;;;;;;8.00;7.40;;;;;21.84;40.66;97618.31;6328157;27;98650;-74
2022/04/25 07:50:27;;;;;;;;;10.00;9.00;;;;;22.04;40.75;97625.84;6315234;27;96657;-70
2022/04/25 07:53:31;;;;;;;;;8.60;7.60;;;;;22.00;39.87;97625.72;6293736;27;100277;-73
2022/04/25 07:56:36;;;;;;;;;9.20;9.20;;;;;21.87;39.83;97625.88;6307612;27;97427;-70
2022/04/25 07:59:39;;;;;;;;;10.00;8.00;;;;;21.71;40.16;97628.31;6320446;27;97307;-73
2022/04/25 08:02:42;;;;;;;;;8.80;8.80;;;;;21.54;40.16;97629.16;6315232;27;97945;-72
2022/04/25 08:05:47;;;;;;;;;13.50;11.50;;;;;21.49;40.65;97642.22;6300726;27;98319;-70
2022/04/25 08:08:51;;;;;;;;;11.20;10.20;;;;;21.49;41.71;97647.69;6333333;27;97489;-70
2022/04/25 08:18:32;;;;;;;;;10.60;9.60;;;;;21.41;41.59;97656.69;6288727;27;97644;-70
2022/04/25 08:21:38;;;;;;;;;10.00;9.00;;;;;21.34;42.07;97657.19;6318129;27;98164;-71
2022/04/25 08:24:41;;;;;;;;;10.00;9.00;;;;;21.34;42.45;97653.66;6314946;27;97200;-69
2022/04/25 08:27:45;;;;;;;;;9.20;8.20;;;;;21.33;42.33;97660.25;6303629;27;97042;-72
2022/04/25 08:30:48;;;;;;;;;8.00;7.00;;;;;21.37;41.95;97661.22;6310691;27;96765;-74
2022/04/25 08:33:51;;;;;;;;;11.00;10.00;;;;;21.28;41.77;97665.88;6319784;27;96701;-69
2022/04/25 08:36:56;;;;;;;;;13.60;10.60;;;;;21.21;42.59;97665.56;6322754;27;97409;-69
2022/04/25 08:39:59;;;;;;;;;14.00;12.50;;;;;21.21;43.15;97649.13;6317792;27;96529;-69
2022/04/25 08:43:04;;;;;;;;;15.00;14.00;;;;;21.42;43.37;97661.88;6309808;27;100032;-73
2022/04/25 08:46:10;;;;;;;;;15.00;13.50;;;;;21.44;43.55;97656.88;6311331;27;97778;-70
2022/04/25 08:49:15;;;;;;;;;15.75;15.00;;;;;21.63;43.30;97662.03;6289405;27;97251;-70
2022/04/25 08:52:20;;;;;;;;;15.00;15.00;;;;;21.86;42.95;97658.00;6320605;27;97373;-70
2022/04/25 08:55:26;;;;;;;;;13.60;13.00;;;;;22.04;42.83;97661.53;6329324;27;96889;-73
2022/04/25 08:58:32;;;;;;;;;14.20;12.00;;;;;22.19;42.91;97666.50;6276278;27;96618;-73
2022/04/25 09:01:36;;;;;;;;;14.00;13.00;;;;;22.41;42.40;97666.31;6308399;27;97041;-73
2022/04/25 09:04:40;;;;;;;;;12.00;11.00;;;;;22.53;42.00;97664.81;6303003;27;97558;-72
2022/04/25 09:07:45;;;;;;;;;11.00;11.00;;;;;22.49;41.03;97661.91;6314939;27;97561;-70
2022/04/25 09:10:50;;;;;;;;;8.40;7.20;;;;;22.44;40.03;97651.91;6323284;27;96993;-72
2022/04/25 09:13:54;;;;;;;;;7.80;7.00;;;;;22.48;39.66;97671.28;6325373;27;97464;-72
2022/04/25 09:16:57;;;;;;;;;8.80;8.00;;;;;22.40;39.20;97667.44;6307876;27;99857;-73
2022/04/25 09:20:00;;;;;;;;;9.60;9.00;;;;;22.29;39.72;97671.66;6326958;27;97825;-73
2022/04/25 09:23:21;;;;;;;;;9.50;8.50;;;;;22.25;39.11;97678.13;6307942;27;99922;-69
2022/04/25 09:26:28;;;;;;;;;8.40;7.00;;;;;22.21;38.89;97679.91;6325086;27;97473;-71
2022/04/25 09:29:32;;;;;;;;;7.00;6.50;;;;;22.22;38.58;97685.09;6325068;27;97151;-73
2022/04/25 09:32:36;;;;;;;;;8.00;6.75;;;;;22.30;38.94;97681.50;6330798;27;96834;-73
2022/04/25 09:35:41;;;;;;;;;6.00;6.00;;;;;22.42;38.48;97681.66;6310920;27;97147;-73
2022/04/25 09:38:47;;;;;;;;;7.00;6.40;;;;;22.56;37.86;97678.69;6296418;27;97283;-73
2022/04/25 09:41:50;;;;;;;;;7.40;7.00;;;;;22.72;37.54;97682.56;6314745;27;97207;-69
2022/04/25 09:44:55;;;;;;;;;8.00;8.00;;;;;22.82;37.41;97686.88;6308534;27;99534;-71
2022/04/25 09:47:59;;;;;;;;;8.60;7.40;;;;;23.02;37.82;97688.84;6309488;27;96808;-69
2022/04/25 09:51:04;;;;;;;;;9.00;7.20;;;;;23.15;37.97;97687.00;6305103;27;96795;-72
2022/04/25 09:54:09;;;;;;;;;8.25;7.25;;;;;23.23;37.47;97684.19;6331220;27;97396;-69
2022/04/25 09:57:29;;;;;;;;;8.00;8.00;;;;;23.31;37.12;97682.56;6308087;27;96707;-72
2022/04/25 10:00:37;;;;;;;;;10.67;10.00;;;;;23.27;37.40;97682.38;6313373;27;97992;-74
2022/04/25 10:03:41;;;;;;;;;7.00;6.00;;;;;23.27;37.19;97695.34;6331864;27;97530;-70
2022/04/25 10:06:46;;;;;;;;;9.40;8.40;;;;;23.16;37.55;97683.94;6340417;27;96482;-74
2022/04/25 10:09:53;;;;;;;;;8.00;7.00;;;;;23.02;37.07;97686.09;6322495;27;96637;-69
2022/04/25 10:12:56;;;;;;;;;7.60;6.60;;;;;22.81;37.32;97683.31;6316120;27;96482;-69
2022/04/25 10:16:00;;;;;;;;;4.75;4.75;;;;;22.68;36.90;97687.03;6327342;27;97404;-72
2022/04/25 10:19:04;;;;;;;;;5.25;5.00;;;;;22.39;36.96;97665.00;6288307;27;99095;-72
2022/04/25 10:22:08;;;;;;;;;6.00;6.00;;;;;22.37;36.74;97684.56;6314049;27;97429;-72
2022/04/25 10:25:13;;;;;;;;;4.40;4.40;;;;;22.22;37.45;97685.09;6307459;27;96726;-73
2022/04/25 10:28:20;;;;;;;;;7.00;7.00;;;;;22.10;38.07;97681.38;6328826;27;97639;-72
2022/04/25 10:31:28;;;;;;;;;5.20;4.80;;;;;22.02;38.49;97680.28;6305180;27;96852;-71
2022/04/25 10:34:51;;;;;;;;;7.00;7.00;;;;;21.91;38.23;97692.69;6323849;27;99146;-68
2022/04/25 10:37:55;;;;;;;;;6.00;5.00;;;;;21.72;37.96;97690.28;6329434;27;96640;-72
2022/04/25 10:44:56;;;;;;;;;4.60;4.60;;;;;21.36;39.08;97693.31;6300818;27;98087;-71
2022/04/25 10:48:08;;;;;;;;;5.60;5.00;;;;;21.25;39.87;97688.47;6304926;27;97522;-69
2022/04/25 10:51:13;;;;;;;;;6.00;5.50;;;;;21.13;40.62;97689.88;6328004;27;98730;-72
2022/04/25 10:54:23;;;;;;;;;7.00;6.00;;;;;21.10;41.05;97698.72;6310429;27;97717;-73
2022/04/25 10:57:28;;;;;;;;;8.00;7.00;;;;;21.08;40.81;97692.75;6327649;27;98603;-73
2022/04/25 11:00:58;;;;;;;;;8.00;7.20;;;;;21.20;40.84;97696.84;6324090;27;96911;-70
2022/04/25 11:04:05;;;;;;;;;8.00;7.25;;;;;21.32;40.66;97697.81;6321530;27;96703;-73
2022/04/25 11:07:21;;;;;;;;;10.60;9.00;;;;;21.39;40.05;97691.88;6322567;27;97022;-69
2022/04/25 11:10:43;;;;;;;;;5.00;5.00;;;;;21.41;38.91;97706.06;6332212;27;96656;-69
2022/04/25 11:14:14;;;;;;;;;6.80;6.00;;;;;21.37;40.08;97705.09;6326687;27;97727;-73
2022/04/25 11:17:17;;;;;;;;;3.00;2.80;;;;;21.37;38.27;97696.84;6325033;27;97456;-72
2022/04/25 11:20:55;;;;;;;;;5.00;4.00;;;;;21.60;37.95;97703.81;6309733;27;96721;-69
2022/04/25 11:24:01;;;;;;;;;5.75;5.00;;;;;22.17;37.87;97704.47;6309031;27;97874;-72
2022/04/25 11:27:09;;;;;;;;;3.50;3.00;;;;;22.83;37.24;97692.00;6313132;27;99395;-73
2022/04/25 11:30:18;;;;;;;;;3.00;2.00;;;;;23.57;34.84;97709.88;6291830;27;98595;-70
2022/04/25 11:33:21;;;;;;;;;3.00;2.00;;;;;23.96;33.52;97719.63;6328865;27;97993;-69
2022/04/25 11:36:26;;;;;;;;;2.00;2.00;;;;;24.31;33.61;97711.88;6324178;27;96790;-70
2022/04/25 11:42:50;;;;;;;;;3.00;3.00;;;;;24.28;32.73;97721.63;6328586;27;97743;-73
2022/04/25 11:45:55;;;;;;;;;4.50;4.00;;;;;24.15;32.73;97733.69;6331985;27;96743;-72
2022/04/25 11:48:58;;;;;;;;;5.40;5.00;;;;;24.06;33.05;97732.97;6326944;27;96901;-69
2022/04/25 11:52:02;;;;;;;;;5.00;5.00;;;;;23.89;33.41;97730.38;6291707;27;98885;-74
2022/04/25 11:55:05;;;;;;;;;5.00;5.00;;;;;23.81;33.87;97743.06;6306899;27;96731;-72
2022/04/25 11:58:09;;;;;;;;;4.00;4.00;;;;;23.17;34.06;97734.22;6325680;27;97272;-73
2022/04/25 12:01:14;;;;;;;;;4.60;4.40;;;;;22.51;35.67;97746.72;6327908;27;97541;-72
2022/04/25 12:04:18;;;;;;;;;7.00;6.00;;;;;22.16;37.07;97755.00;6304520;27;97725;-69
2022/04/25 12:07:22;;;;;;;;;8.00;7.00;;;;;21.87;38.22;97747.41;6314572;27;97910;-70
2022/04/25 12:17:11;;;;;;;;;6.60;6.00;;;;;21.65;39.44;97752.25;6321573;27;96687;-72
2022/04/25 12:20:17;;;;;;;;;5.20;5.20;;;;;21.85;39.87;97762.56;6330640;27;96528;-73
2022/04/25 12:23:22;;;;;;;;;9.00;7.00;;;;;21.99;39.23;97761.31;6329479;27;96797;-69
2022/04/25 12:26:28;;;;;;;;;6.00;6.00;;;;;22.35;39.34;97752.72;6337652;27;96731;-72
2022/04/25 12:29:31;;;;;;;;;6.00;6.00;;;;;22.56;38.87;97752.84;6282260;27;98830;-70
2022/04/25 12:32:37;;;;;;;;;6.00;5.00;;;;;22.61;37.37;97754.63;6320952;27;96811;-72
2022/04/25 12:35:40;;;;;;;;;7.00;6.00;;;;;22.70;37.64;97753.50;6324005;27;98123;-73
2022/04/25 12:38:46;;;;;;;;;8.20;7.20;;;;;22.68;37.86;97758.47;6320767;27;98570;-72
2022/04/25 12:41:54;;;;;;;;;7.50;6.50;;;;;22.86;37.21;97748.28;6316562;27;96806;-72
2022/04/25 12:44:58;;;;;;;;;6.40;6.00;;;;;23.54;36.35;97769.16;6306708;27;98062;-72
2022/04/25 12:48:06;;;;;;;;;4.40;4.40;;;;;23.61;35.57;97741.09;6319669;27;97208;-72
2022/04/25 12:51:26;;;;;;;;;3.00;3.00;;;;;24.24;34.63;97764.75;6321628;27;99460;-70
2022/04/25 12:54:31;;;;;;;;;2.00;2.00;;;;;24.32;33.45;97768.59;6324229;27;98985;-69
2022/04/25 12:57:35;;;;;;;;;3.80;3.00;;;;;24.53;33.98;97769.34;6309722;27;99092;-70
2022/04/25 13:00:43;;;;;;;;;3.00;3.00;;;;;24.53;34.15;97739.81;6308312;27;97418;-71
2022/04/25 13:04:12;;;;;;;;;2.00;2.00;;;;;24.71;31.47;97768.03;6333876;27;96733;-72
2022/04/25 13:07:16;;;;;;;;;1.20;1.20;;;;;24.45;30.91;97775.75;6335769;27;96608;-70
2022/04/25 13:10:21;;;;;;;;;2.00;2.00;;;;;24.14;31.80;97737.63;6336344;27;97922;-72
2022/04/25 13:13:24;;;;;;;;;2.60;2.60;;;;;24.64;31.45;97775.22;6333186;27;98440;-70
2022/04/25 13:16:29;;;;;;;;;2.25;2.00;;;;;24.97;31.15;97776.03;6298274;27;98095;-69
2022/04/25 13:19:38;;;;;;;;;4.00;3.00;;;;;25.30;31.38;97776.75;6314519;27;97361;-72
2022/04/25 13:22:42;;;;;;;;;4.00;4.00;;;;;25.18;31.00;97757.44;6341529;27;97031;-72
2022/04/25 13:25:46;;;;;;;;;4.50;4.00;;;;;25.45;31.29;97775.25;6311938;27;97030;-73
2022/04/25 13:28:50;;;;;;;;;4.00;4.00;;;;;25.24;31.43;97774.56;6326787;27;97543;-69
2022/04/25 13:31:53;;;;;;;;;5.60;5.00;;;;;24.99;31.55;97776.47;6314963;27;98597;-72
2022/04/25 13:34:58;;;;;;;;;8.00;7.00;;;;;24.61;32.58;97771.22;6339432;27;97564;-72
2022/04/25 13:38:01;;;;;;;;;8.40;7.40;;;;;24.62;32.61;97788.56;6337464;27;97439;-70
2022/04/25 13:41:05;;;;;;;;;7.00;7.00;;;;;24.46;31.98;97764.38;6329676;27;96977;-70
2022/04/25 13:44:08;;;;;;;;;8.80;7.20;;;;;24.52;32.08;97776.00;6315397;27;96724;-70
2022/04/25 13:47:12;;;;;;;;;9.20;8.80;;;;;24.31;32.45;97780.72;6335070;27;96939;-70
2022/04/25 13:50:17;;;;;;;;;7.00;6.00;;;;;23.99;32.46;97776.78;6333784;27;97054;-72
2022/04/25 13:53:21;;;;;;;;;9.00;8.00;;;;;23.54;33.84;97798.59;6330196;27;96621;-74
2022/04/25 13:56:24;;;;;;;;;9.00;9.00;;;;;22.86;35.19;97795.81;6317980;27;96867;-72
2022/04/25 13:59:28;;;;;;;;;12.60;12.00;;;;;21.58;37.89;97796.59;6334967;27;97566;-72
2022/04/25 14:05:53;;;;;;;;;9.40;8.00;;;;;21.11;41.65;97844.78;6337670;27;96683;-72
2022/04/25 14:08:57;;;;;;;;;9.00;9.00;;;;;20.70;41.31;97845.03;6291333;27;99450;-72
2022/04/25 14:12:01;;;;;;;;;5.60;4.80;;;;;20.55;42.27;97856.34;6317544;27;97295;-69
2022/04/25 14:15:05;;;;;;;;;8.00;8.00;;;;;20.24;43.85;97850.75;6330713;27;97208;-68
2022/04/25 14:18:09;;;;;;;;;19.50;18.50;;;;;20.21;43.65;97863.16;6312880;27;97404;-71
2022/04/25 14:21:14;;;;;;;;;10.00;9.00;;;;;20.16;44.72;97868.72;6311780;27;96757;-69
2022/04/25 14:24:20;;;;;;;;;10.00;10.00;;;;;20.21;45.37;97868.63;6311968;27;97813;-72
2022/04/25 14:27:23;;;;;;;;;20.00;19.00;;;;;20.26;45.40;97873.16;6333169;27;97424;-72
2022/04/25 14:30:27;;;;;;;;;9.00;8.00;;;;;20.40;44.53;97868.47;6333367;27;99107;-70
2022/04/25 14:33:30;;;;;;;;;50.25;40.25;;;;;20.51;44.03;97872.59;6311802;27;97894;-72
2022/04/25 14:36:35;;;;;;;;;6.00;5.20;;;;;20.79;43.40;97881.50;6338364;27;97098;-69
2022/04/25 14:39:39;;;;;;;;;14.00;11.20;;;;;20.98;41.91;97887.56;6303916;27;96784;-74
2022/04/25 14:42:43;;;;;;;;;8.40;7.60;;;;;21.02;41.37;97880.34;6338516;27;96466;-72
2022/04/25 14:45:47;;;;;;;;;6.25;5.75;;;;;21.07;40.91;97887.63;6331112;27;96591;-70
2022/04/25 14:48:50;;;;;;;;;7.00;6.25;;;;;20.98;41.16;97890.31;6337802;27;97355;-72
2022/04/25 14:55:19;;;;;;;;;5.60;5.00;;;;;20.89;41.33;97886.72;6334894;27;97844;-72
2022/04/25 14:58:23;;;;;;;;;6.80;6.00;;;;;20.81;41.38;97887.47;6334821;27;96968;-72
2022/04/25 15:01:33;;;;;;;;;4.00;4.00;;;;;20.79;41.34;97892.44;6318157;27;97436;-70
2022/04/25 15:04:37;;;;;;;;;5.00;5.00;;;;;20.67;41.64;97895.75;6333147;27;97246;-70
2022/04/25 15:07:42;;;;;;;;;7.00;5.00;;;;;20.62;42.45;97900.56;6336919;27;97053;-69
2022/04/25 15:10:47;;;;;;;;;7.00;7.00;;;;;20.43;42.58;97902.66;6314115;27;98961;-73
2022/04/25 15:13:51;;;;;;;;;8.00;7.00;;;;;20.20;42.72;97899.84;6333338;27;97526;-69